»·PEaware :: N3141P KEGE-KGJT

N3141P :: KEGE-KGJT

FLIGHT INFORMATION

Flight Status: Arrived
Operator: Privately registered:
United States
More flights under this callsign
Pilot: Andrew N. (12823)
Aircraft: Unknown
(PIPA)
More flights by this aircraft type
Origin: KEGE Eagle Co Regl
United States
Destination: KGJT Walker
United States
More flights between these airports :: More routes between these airports
Route: GYPSM5 RLG V8 JNC
File this flight plan on PilotEdge
Remarks:
Altitude:
(Current/Filed)
14,000ft
Speed:
(Current/Filed)
200kts
Departed: 04-Oct-17 08:36 AM
Arrived: 04-Oct-17 09:38 AM
Distance/Time
Traveled:
81nm/1:02
Distance/Time
To Go:
Arrived

Flight Plot

Page will automatically refresh every two minutes.

Flight plan parsing failed; only flown route is shown


Map Options




Map Legend


Flown Route
Filed Route
Departure Airport
Arrival Airport
Navaid (VOR, NDB)
Fix

Horizontal Profiles

Position Reports

Time Latitude Longitude Heading Altitude Ground
Speed
04-Oct-17 08:19 39.646339 -106.910975 325 6489ft 0kts
04-Oct-17 08:20 39.646339 -106.910975 325 6489ft 0kts
04-Oct-17 08:21 39.646339 -106.910975 325 6489ft 0kts
04-Oct-17 08:22 39.646339 -106.910975 325 6489ft 0kts
04-Oct-17 08:23 39.646339 -106.910975 325 6489ft 0kts
04-Oct-17 08:24 39.646339 -106.910975 325 6489ft 0kts
04-Oct-17 08:25 39.646339 -106.910975 325 6489ft 0kts
04-Oct-17 08:26 39.646339 -106.910975 325 6489ft 0kts
04-Oct-17 08:27 39.646339 -106.910975 325 6489ft 0kts
04-Oct-17 08:28 39.646339 -106.910975 325 6489ft 0kts
04-Oct-17 08:29 39.646339 -106.910975 325 6489ft 0kts
04-Oct-17 08:30 39.646339 -106.910975 325 6489ft 0kts
04-Oct-17 08:31 39.646416 -106.910796 123 6489ft 0kts
04-Oct-17 08:32 39.646387 -106.910737 121 6490ft 0kts
04-Oct-17 08:33 39.646387 -106.910737 121 6490ft 0kts
04-Oct-17 08:34 39.646387 -106.910737 121 6490ft 0kts
04-Oct-17 08:35 39.646164 -106.909799 95 6497ft 7kts
04-Oct-17 08:36 39.645433 -106.909352 180 6503ft 9kts
04-Oct-17 08:37 39.642636 -106.908280 80 6523ft 13kts
04-Oct-17 08:38 39.643080 -106.904156 81 6522ft 13kts
04-Oct-17 08:39 39.644014 -106.904133 286 6515ft 9kts
04-Oct-17 08:40 39.636841 -106.922206 218 6999ft 95kts
04-Oct-17 08:41 39.615922 -106.948638 222 8181ft 113kts
04-Oct-17 08:42 39.595175 -106.978344 254 9533ft 115kts
04-Oct-17 08:43 39.614973 -107.005663 331 10781ft 115kts
04-Oct-17 08:44 39.643727 -107.023780 334 11971ft 118kts
04-Oct-17 08:45 39.673162 -107.042505 334 13144ft 119kts
04-Oct-17 08:46 39.703649 -107.061877 336 13966ft 142kts
04-Oct-17 08:47 39.737559 -107.083361 334 13985ft 181kts
04-Oct-17 08:48 39.743744 -107.144575 258 13957ft 197kts
04-Oct-17 08:49 39.731588 -107.227085 260 13968ft 203kts
04-Oct-17 08:50 39.707588 -107.276283 221 13984ft 205kts
04-Oct-17 08:51 39.670310 -107.345325 243 13979ft 205kts
04-Oct-17 08:52 39.645185 -107.410993 244 13977ft 205kts
04-Oct-17 08:53 39.625303 -107.463626 244 14068ft 204kts
04-Oct-17 08:54 39.600419 -107.529632 243 14079ft 207kts
04-Oct-17 08:55 39.575119 -107.596505 242 14078ft 206kts
04-Oct-17 08:56 39.550981 -107.661685 236 13977ft 201kts
04-Oct-17 08:57 39.526451 -107.723484 236 13846ft 187kts
04-Oct-17 08:58 39.501690 -107.780338 241 13801ft 184kts
04-Oct-17 08:59 39.476319 -107.839793 241 13809ft 193kts
04-Oct-17 09:00 39.450139 -107.900781 241 13807ft 196kts
04-Oct-17 09:01 39.423818 -107.961824 241 13807ft 196kts
04-Oct-17 09:02 39.397371 -108.022972 241 13807ft 196kts
04-Oct-17 09:03 39.371343 -108.082952 241 14039ft 185kts
04-Oct-17 09:04 39.347163 -108.138955 239 14042ft 175kts
04-Oct-17 09:05 39.323566 -108.193031 239 14043ft 172kts
04-Oct-17 09:06 39.301030 -108.244389 239 13988ft 159kts
04-Oct-17 09:07 39.279877 -108.292359 239 13987ft 153kts
04-Oct-17 09:08 39.259160 -108.339259 239 13988ft 151kts
04-Oct-17 09:09 39.238347 -108.386453 238 13985ft 157kts
04-Oct-17 09:10 39.216344 -108.436607 238 13992ft 168kts
04-Oct-17 09:11 39.193111 -108.489853 236 13993ft 176kts
04-Oct-17 09:12 39.170659 -108.540782 236 12038ft 143kts
04-Oct-17 09:13 39.150712 -108.585671 237 10269ft 191kts
04-Oct-17 09:14 39.124743 -108.644844 237 9982ft 172kts
04-Oct-17 09:15 39.104714 -108.690330 235 9979ft 135kts
04-Oct-17 09:16 39.087245 -108.728943 233 9992ft 122kts
04-Oct-17 09:17 39.070772 -108.765675 233 9986ft 115kts
04-Oct-17 09:18 39.056582 -108.804171 281 9995ft 136kts
04-Oct-17 09:19 39.070467 -108.849850 292 10004ft 136kts
04-Oct-17 09:20 39.083929 -108.892653 291 10048ft 129kts
04-Oct-17 09:21 39.096564 -108.934008 290 9987ft 121kts
04-Oct-17 09:22 39.108956 -108.975464 290 9998ft 126kts
04-Oct-17 09:23 39.121249 -109.017266 290 9991ft 126kts
04-Oct-17 09:24 39.135316 -109.058128 325 9721ft 126kts
04-Oct-17 09:25 39.163367 -109.048421 34 8317ft 108kts
04-Oct-17 09:26 39.182302 -109.022417 47 8195ft 101kts
04-Oct-17 09:27 39.203650 -108.999761 44 8191ft 100kts
04-Oct-17 09:28 39.226646 -108.975332 44 8193ft 110kts
04-Oct-17 09:29 39.249359 -108.949639 54 8189ft 107kts
04-Oct-17 09:30 39.261647 -108.915683 84 8193ft 106kts
04-Oct-17 09:31 39.262943 -108.878738 79 8193ft 104kts
04-Oct-17 09:32 39.272425 -108.843702 69 8197ft 106kts
04-Oct-17 09:33 39.279514 -108.808621 119 8195ft 104kts
04-Oct-17 09:34 39.260227 -108.773167 123 8193ft 128kts
04-Oct-17 09:35 39.239849 -108.735669 123 8054ft 127kts
04-Oct-17 09:36 39.219972 -108.699226 123 7457ft 124kts
04-Oct-17 09:37 39.200277 -108.663198 123 6845ft 123kts
04-Oct-17 09:38 39.180569 -108.627225 123 6238ft 124kts
04-Oct-17 09:39 39.160751 -108.591123 123 5631ft 122kts
04-Oct-17 09:40 39.143821 -108.560799 122 5172ft 89kts
04-Oct-17 09:41 39.132659 -108.540167 122 4809ft 51kts
04-Oct-17 09:42 39.129306 -108.536268 191 4826ft 4kts
04-Oct-17 09:43 39.127968 -108.536675 69 4822ft 0kts

Navigation Log

Ident Type
Flight plan parsing failed, navigation log unavailable